St Elmo — 9HA2890 — position and weather

sailwx.info

Track history (hours):
 
Tides and Currents Weather Stations Pressure Air Temp Water Temp Dewpoint Dewpoint Depression Visibility Wind Speed Wind Dir Waves Ship Positions

St Elmo

Last reported at 2018-Feb-13 12:05 UTC. Time now 2018-Feb-25 02:13 UTC.
Position N 35°54' E 014°31'.
Warning: this ship's position is 11 days out of date.

Length 30 m; draft 5.8 m.

Type: Tug. MMSI: 256607000.

Date/timePositionNaut miles runAvg speedWind from/ knotsBaromVisibWave heightAir tempDewpointWater temp
2018-Feb-13 12:05N 35°54' E 014°31'110.6
2018-Feb-13 12:00N 35°54' E 014°32'5 9.0
2018-Feb-13 11:30N 35°50' E 014°35'2 4.6
2018-Feb-13 10:59N 35°49' E 014°33'0 0.2
2018-Feb-13 09:22N 35°49' E 014°33'0 0.3
2018-Feb-13 08:55N 35°49' E 014°33'0 0.3
2018-Feb-13 08:30N 35°49' E 014°33'1 0.4
2018-Feb-13 07:14N 35°49' E 014°33'1 3.0
2018-Feb-13 06:58N 35°49' E 014°33'1 1.7
2018-Feb-13 06:30N 35°49' E 014°33'0 0.6
2018-Feb-13 05:59N 35°49' E 014°32'0 0.9
2018-Feb-13 05:27N 35°49' E 014°33'0 0.7
2018-Feb-13 05:00N 35°49' E 014°33'0 0.0
2018-Feb-12 23:22N 35°49' E 014°32'0 0.9
2018-Feb-12 22:59N 35°49' E 014°33'0 0.7
2018-Feb-12 22:22N 35°49' E 014°33'0 0.9
2018-Feb-12 21:50N 35°49' E 014°33'0 0.0
2018-Feb-12 21:16N 35°49' E 014°33'0 0.0
2018-Feb-12 20:57N 35°49' E 014°33'0 0.0
2018-Feb-12 20:29N 35°49' E 014°33'0 0.0
2018-Feb-12 19:19N 35°49' E 014°33'0 0.0
2018-Feb-12 18:55N 35°49' E 014°33'1 1.0
2018-Feb-12 18:21N 35°50' E 014°32'1 3.1
2018-Feb-12 17:59N 35°49' E 014°33'1 0.9
2018-Feb-12 17:07N 35°49' E 014°33'0 0.1
2018-Feb-12 16:44N 35°49' E 014°33'0 0.0
2018-Feb-12 16:17N 35°49' E 014°33'0 0.3
2018-Feb-12 15:04N 35°49' E 014°33'1 6.9
2018-Feb-12 14:58N 35°49' E 014°33'0 0.9
2018-Feb-12 14:29N 35°49' E 014°33'0 0.6
2018-Feb-12 13:55N 35°49' E 014°32'0 0.0
2018-Feb-12 09:59N 35°49' E 014°33'0 0.0
2018-Feb-12 02:20N 35°49' E 014°33'0 0.1
2018-Feb-12 01:02N 35°49' E 014°33'0 0.8
2018-Feb-12 00:56N 35°49' E 014°33'0 0.6
2018-Feb-12 00:27N 35°49' E 014°33'0 1.0
2018-Feb-12 00:00N 35°49' E 014°33'1 1.3
2018-Feb-11 23:29N 35°49' E 014°33'0 0.7
2018-Feb-11 23:00N 35°49' E 014°32'0 0.3
2018-Feb-11 22:30N 35°49' E 014°33'0 0.0
2018-Feb-11 21:55N 35°49' E 014°33'0 0.0
2018-Feb-11 21:28N 35°49' E 014°33'0 0.0
2018-Feb-11 20:59N 35°49' E 014°33'0 0.0
2018-Feb-11 20:30N 35°49' E 014°33'0 0.0
2018-Feb-11 20:00N 35°49' E 014°33'0 0.0
2018-Feb-11 19:30N 35°49' E 014°33'0 0.0
2018-Feb-11 18:56N 35°49' E 014°33'0 0.0
2018-Feb-11 18:28N 35°49' E 014°33'0 0.0
2018-Feb-11 18:00N 35°49' E 014°33'0 0.0
2018-Feb-11 17:30N 35°49' E 014°33'0 0.0
2018-Feb-11 16:59N 35°49' E 014°33'0 0.0
2018-Feb-11 16:30N 35°49' E 014°33'1 0.8
2018-Feb-11 15:51N 35°49' E 014°32'1 3.7
2018-Feb-11 15:29N 35°49' E 014°34'1 2.6
2018-Feb-11 14:59N 35°49' E 014°32'0 0.5
2018-Feb-11 14:27N 35°49' E 014°32'0 0.6
2018-Feb-11 13:59N 35°49' E 014°33'0 0.0
2018-Feb-11 13:04N 35°49' E 014°33'0 0.0
2018-Feb-11 12:49N 35°49' E 014°33'0 0.0
2018-Feb-11 12:22N 35°49' E 014°33'0 0.0
2018-Feb-11 11:58N 35°49' E 014°33'0 0.7
2018-Feb-11 11:17N 35°49' E 014°33'0 0.1
2018-Feb-11 09:56N 35°49' E 014°33'1 1.5
2018-Feb-11 09:30N 35°49' E 014°32'0 0.4
2018-Feb-11 09:00N 35°49' E 014°33'1 2.3
2018-Feb-11 08:29N 35°49' E 014°34'1 0.8
2018-Feb-11 07:10N 35°49' E 014°33'0 2.2
2018-Feb-11 06:59N 35°49' E 014°33'1 0.7
2018-Feb-11 06:11N 35°49' E 014°33'0 0.9
2018-Feb-11 05:49N 35°49' E 014°33'1 0.9
2018-Feb-11 05:15N 35°49' E 014°32'0 0.5
2018-Feb-11 04:55N 35°49' E 014°33'0 0.0
2018-Feb-11 04:19N 35°49' E 014°33'0 0.0
2018-Feb-11 03:57N 35°49' E 014°33'0 0.7
2018-Feb-11 03:15N 35°49' E 014°33'0 0.4
2018-Feb-11 02:54N 35°49' E 014°33'0 0.7
2018-Feb-11 02:23N 35°49' E 014°33'0 0.0
2018-Feb-11 01:58N 35°49' E 014°33'0 0.0
2018-Feb-11 01:30N 35°49' E 014°33'0 0.0
2018-Feb-11 00:57N 35°49' E 014°33'0 0.0
2018-Feb-11 00:28N 35°49' E 014°33'0 0.0
2018-Feb-10 23:56N 35°49' E 014°33'0 0.0
2018-Feb-10 23:30N 35°49' E 014°33'0 0.0
2018-Feb-10 22:47N 35°49' E 014°33'0 0.0
2018-Feb-10 22:23N 35°49' E 014°33'0 0.0
2018-Feb-10 21:42N 35°49' E 014°33'0 0.0
2018-Feb-10 21:26N 35°49' E 014°33'0 0.0
2018-Feb-10 20:53N 35°49' E 014°33'0 0.0
2018-Feb-10 20:29N 35°49' E 014°33'0 0.0
2018-Feb-10 19:33N 35°49' E 014°33'0 0.3
2018-Feb-10 19:29N 35°49' E 014°33'0 0.0
2018-Feb-10 18:45N 35°49' E 014°33'0 0.0
2018-Feb-10 18:27N 35°49' E 014°33'0 0.0
2018-Feb-10 16:34N 35°49' E 014°33'0 0.0
2018-Feb-10 16:22N 35°49' E 014°33'0 0.3
2018-Feb-10 16:00N 35°49' E 014°32'1 1.7
2018-Feb-10 15:27N 35°49' E 014°34'1 1.8
2018-Feb-10 15:00N 35°49' E 014°33'0 0.0
2018-Feb-10 14:01N 35°49' E 014°33'0 0.0
2018-Feb-10 14:00N 35°49' E 014°33'0 0.0
2018-Feb-10 12:26N 35°49' E 014°33'0 0.0
2018-Feb-10 04:51N 35°49' E 014°33'0 0.0
2018-Feb-10 04:28N 35°49' E 014°33'0 0.1
2018-Feb-10 02:37N 35°49' E 014°32'0 0.5
2018-Feb-10 01:53N 35°49' E 014°33'0 0.7
2018-Feb-10 01:22N 35°49' E 014°33'0 0.1
2018-Feb-10 00:58N 35°49' E 014°33'1 0.4
2018-Feb-09 23:28N 35°49' E 014°33'1 0.3
2018-Feb-09 21:42N 35°49' E 014°33'0 0.0
2018-Feb-09 07:00N 35°49' E 014°33'0 0.0
2018-Feb-08 12:00N 35°49' E 014°33'0 0.0
2018-Feb-08 00:57N 35°49' E 014°33'0 0.0
2018-Feb-08 00:23N 35°49' E 014°33'0 0.0
2018-Feb-07 23:59N 35°49' E 014°33'0 0.2
2018-Feb-07 23:29N 35°49' E 014°32'0 0.7
2018-Feb-07 22:52N 35°49' E 014°33'0 0.0
2018-Feb-07 08:40N 35°49' E 014°33'0 0.3
2018-Feb-07 08:19N 35°49' E 014°33'1 1.5
2018-Feb-07 07:59N 35°49' E 014°33'0 0.0
2018-Feb-07 07:18N 35°49' E 014°33'0 0.9
2018-Feb-07 06:49N 35°49' E 014°33'1 1.4
2018-Feb-07 06:26N 35°49' E 014°32'1 0.6
2018-Feb-07 05:26N 35°49' E 014°33'0 1.1
2018-Feb-07 04:59N 35°49' E 014°33'0 0.4
2018-Feb-07 03:51N 35°49' E 014°32'1 1.0
2018-Feb-07 03:19N 35°49' E 014°33'1 1.2
2018-Feb-07 02:52N 35°49' E 014°32'0 0.5
2018-Feb-07 02:26N 35°49' E 014°32'0 0.3
2018-Feb-07 01:15N 35°49' E 014°33'0 0.0
2018-Feb-07 01:00N 35°49' E 014°33'0 0.0
2018-Feb-07 00:19N 35°49' E 014°33'0 0.0
2018-Feb-06 23:58N 35°49' E 014°33'0 0.0
2018-Feb-06 23:27N 35°49' E 014°33'1 1.3
2018-Feb-06 23:00N 35°49' E 014°32'0 0.9
2018-Feb-06 22:30N 35°49' E 014°32'0 0.5
2018-Feb-06 21:58N 35°49' E 014°33'0 0.7
2018-Feb-06 21:30N 35°49' E 014°33'0 0.7
2018-Feb-06 20:58N 35°49' E 014°33'0 0.8
2018-Feb-06 20:30N 35°49' E 014°33'0 0.0
2018-Feb-06 19:19N 35°49' E 014°33'0 0.0
2018-Feb-06 18:59N 35°49' E 014°33'0 0.0
2018-Feb-06 18:04N 35°49' E 014°33'0 0.0
2018-Feb-06 17:54N 35°49' E 014°33'0 0.0
2018-Feb-06 17:30N 35°49' E 014°33'0 0.1
2018-Feb-06 16:41N 35°49' E 014°33'0 0.9
2018-Feb-06 16:16N 35°49' E 014°33'0 1.2
2018-Feb-06 16:00N 35°49' E 014°33'0 0.6
2018-Feb-06 15:25N 35°49' E 014°32'0 0.5
2018-Feb-06 14:59N 35°49' E 014°33'0 0.0
2018-Feb-06 14:16N 35°49' E 014°33'0 0.2
2018-Feb-06 13:05N 35°49' E 014°32'0 1.5
2018-Feb-06 12:53N 35°49' E 014°32'0 1.1
2018-Feb-06 12:29N 35°49' E 014°33'0 0.8
2018-Feb-06 11:56N 35°49' E 014°33'0 0.2
2018-Feb-06 11:13N 35°49' E 014°33'0 0.8
2018-Feb-06 10:57N 35°49' E 014°33'0 0.7
2018-Feb-06 10:17N 35°49' E 014°32'1 0.8
2018-Feb-06 09:08N 35°49' E 014°33'0 2.0
2018-Feb-06 08:56N 35°49' E 014°33'0 0.3
2018-Feb-06 07:15N 35°49' E 014°32'0 0.1
2018-Feb-06 06:59N 35°49' E 014°32'0 0.8
2018-Feb-06 06:30N 35°49' E 014°33'0 0.0
2018-Feb-06 06:00N 35°49' E 014°33'0 0.0
2018-Feb-06 05:21N 35°49' E 014°33'0 0.0
2018-Feb-06 04:51N 35°49' E 014°33'0 0.0
2018-Feb-06 04:14N 35°49' E 014°33'0 0.0
2018-Feb-06 03:42N 35°49' E 014°33'0 0.0
2018-Feb-06 03:30N 35°49' E 014°33'0 0.0
2018-Feb-06 02:59N 35°49' E 014°33'0 0.1
2018-Feb-05 23:29N 35°49' E 014°32'0 0.8
2018-Feb-05 22:54N 35°49' E 014°33'0 0.0
2018-Feb-05 22:26N 35°49' E 014°33'0 0.0
2018-Feb-05 21:59N 35°49' E 014°33'0 0.0
2018-Feb-05 21:24N 35°49' E 014°33'0 0.0
2018-Feb-05 20:57N 35°49' E 014°33'0 0.0
2018-Feb-05 20:17N 35°49' E 014°33'0 0.0
2018-Feb-05 19:51N 35°49' E 014°33'1 0.3
2018-Feb-05 18:04N 35°49' E 014°33'1 1.2
2018-Feb-05 17:38N 35°49' E 014°33'0 1.2
2018-Feb-05 17:21N 35°49' E 014°32'0 0.8
2018-Feb-05 16:59N 35°49' E 014°33'0 0.0
2018-Feb-05 16:29N 35°49' E 014°33'0 0.0
2018-Feb-05 16:00N 35°49' E 014°33'0 0.7
2018-Feb-05 15:24N 35°49' E 014°33'0 1.0
2018-Feb-05 14:58N 35°49' E 014°33'0 0.0
2018-Feb-05 14:27N 35°49' E 014°33'0 0.0
2018-Feb-05 14:00N 35°49' E 014°33'0 0.0
2018-Feb-05 13:30N 35°49' E 014°33'0 0.0
2018-Feb-05 12:59N 35°49' E 014°33'0 0.0
2018-Feb-05 12:30N 35°49' E 014°33'0 0.0
2018-Feb-05 11:59N 35°49' E 014°33'0 0.0
2018-Feb-05 11:29N 35°49' E 014°33'0 0.0
2018-Feb-05 10:57N 35°49' E 014°33'0 0.0
2018-Feb-05 10:29N 35°49' E 014°33'0 0.0
2018-Feb-05 10:00N 35°49' E 014°33'0 0.0
2018-Feb-05 09:28N 35°49' E 014°33'0 0.0
2018-Feb-05 09:00N 35°49' E 014°33'0 0.0
2018-Feb-05 08:24N 35°49' E 014°33'0 0.0
2018-Feb-05 07:59N 35°49' E 014°33'0 0.3
2018-Feb-05 07:28N 35°49' E 014°32'0 0.9
2018-Feb-05 06:58N 35°49' E 014°33'0 0.8
2018-Feb-05 06:27N 35°49' E 014°33'0 0.4
2018-Feb-05 05:30N 35°49' E 014°33'1 0.1
2018-Feb-04 22:32N 35°49' E 014°33'0 2.1
2018-Feb-04 22:26N 35°49' E 014°33'1 0.7
2018-Feb-04 21:36N 35°49' E 014°32'0 0.1
2018-Feb-04 21:30N 35°49' E 014°32'0 0.6
2018-Feb-04 21:00N 35°49' E 014°33'0 0.0
2018-Feb-04 19:57N 35°49' E 014°33'1 1.2
2018-Feb-04 19:30N 35°50' E 014°33'1 0.6
2018-Feb-04 18:39N 35°49' E 014°33'1 0.2
2018-Feb-04 15:20N 35°49' E 014°33'1 1.2
2018-Feb-04 14:41N 35°49' E 014°32'0 1.5
2018-Feb-04 14:29N 35°49' E 014°33'0 0.4
2018-Feb-04 13:37N 35°49' E 014°33'0 2.7
2018-Feb-04 13:29N 35°49' E 014°33'0 0.0
2018-Feb-04 13:00N 35°49' E 014°33'0 0.0
2018-Feb-04 12:30N 35°49' E 014°33'0 0.0
2018-Feb-04 12:00N 35°49' E 014°33'0 0.4
2018-Feb-04 11:28N 35°49' E 014°32'0 0.0
2018-Feb-04 09:59N 35°49' E 014°32'1 0.2
2018-Feb-04 07:06N 35°49' E 014°33'0 0.9
2018-Feb-04 06:58N 35°49' E 014°33'0 0.6
2018-Feb-04 06:13N 35°49' E 014°33'0 1.8
2018-Feb-04 06:00N 35°49' E 014°33'0 0.0
2018-Feb-04 05:29N 35°49' E 014°33'0 0.0
2018-Feb-04 04:59N 35°49' E 014°33'0 0.0
2018-Feb-04 04:18N 35°49' E 014°33'0 0.0
2018-Feb-04 03:57N 35°49' E 014°33'0 0.0
2018-Feb-04 02:55N 35°49' E 014°33'0 0.0
2018-Feb-04 02:23N 35°49' E 014°33'0 0.0
2018-Feb-04 01:55N 35°49' E 014°33'0 0.0
2018-Feb-04 01:29N 35°49' E 014°33'0 0.5
2018-Feb-04 00:57N 35°49' E 014°32'1 1.6
2018-Feb-04 00:29N 35°49' E 014°33'0 0.7
2018-Feb-03 23:48N 35°49' E 014°33'0 0.0
2018-Feb-03 23:28N 35°49' E 014°33'0 0.8
2018-Feb-03 22:59N 35°49' E 014°32'0 0.3
2018-Feb-03 22:12N 35°49' E 014°32'1 4.9
2018-Feb-03 21:58N 35°49' E 014°33'1 0.3
2018-Feb-03 20:04N 35°49' E 014°33'1 0.3
2018-Feb-03 17:55N 35°49' E 014°32'1 1.2
2018-Feb-03 17:26N 35°49' E 014°33'0 0.3
2018-Feb-03 15:59N 35°49' E 014°33'0 0.0
2018-Feb-03 13:50N 35°49' E 014°33'0 0.0
2018-Feb-03 13:21N 35°49' E 014°33'0 0.0
2018-Feb-03 12:48N 35°49' E 014°33'0 0.0
2018-Feb-03 12:12N 35°49' E 014°33'  
Track history (hours):
 
Tides and Currents Weather Stations Pressure Air Temp Water Temp Dewpoint Dewpoint Depression Visibility Wind Speed Wind Dir Waves Ship Positions

St Elmo

Last reported at 2018-Feb-13 12:05 UTC. Time now 2018-Feb-25 02:13 UTC.
Position N 35°54' E 014°31'.
Warning: this ship's position is 11 days out of date.

Length 30 m; draft 5.8 m.

Type: Tug. MMSI: 256607000.

Date/timePositionNaut miles runAvg speedWind from/ knotsBaromVisibWave heightAir tempDewpointWater temp
2018-Feb-13 12:05N 35°54' E 014°31'110.6
2018-Feb-13 12:00N 35°54' E 014°32'5 9.0
2018-Feb-13 11:30N 35°50' E 014°35'2 4.6
2018-Feb-13 10:59N 35°49' E 014°33'0 0.2
2018-Feb-13 09:22N 35°49' E 014°33'0 0.3
2018-Feb-13 08:55N 35°49' E 014°33'0 0.3
2018-Feb-13 08:30N 35°49' E 014°33'1 0.4
2018-Feb-13 07:14N 35°49' E 014°33'1 3.0
2018-Feb-13 06:58N 35°49' E 014°33'1 1.7
2018-Feb-13 06:30N 35°49' E 014°33'0 0.6
2018-Feb-13 05:59N 35°49' E 014°32'0 0.9
2018-Feb-13 05:27N 35°49' E 014°33'0 0.7
2018-Feb-13 05:00N 35°49' E 014°33'0 0.0
2018-Feb-12 23:22N 35°49' E 014°32'0 0.9
2018-Feb-12 22:59N 35°49' E 014°33'0 0.7
2018-Feb-12 22:22N 35°49' E 014°33'0 0.9
2018-Feb-12 21:50N 35°49' E 014°33'0 0.0
2018-Feb-12 21:16N 35°49' E 014°33'0 0.0
2018-Feb-12 20:57N 35°49' E 014°33'0 0.0
2018-Feb-12 20:29N 35°49' E 014°33'0 0.0
2018-Feb-12 19:19N 35°49' E 014°33'0 0.0
2018-Feb-12 18:55N 35°49' E 014°33'1 1.0
2018-Feb-12 18:21N 35°50' E 014°32'1 3.1
2018-Feb-12 17:59N 35°49' E 014°33'1 0.9
2018-Feb-12 17:07N 35°49' E 014°33'0 0.1
2018-Feb-12 16:44N 35°49' E 014°33'0 0.0
2018-Feb-12 16:17N 35°49' E 014°33'0 0.3
2018-Feb-12 15:04N 35°49' E 014°33'1 6.9
2018-Feb-12 14:58N 35°49' E 014°33'0 0.9
2018-Feb-12 14:29N 35°49' E 014°33'0 0.6
2018-Feb-12 13:55N 35°49' E 014°32'0 0.0
2018-Feb-12 09:59N 35°49' E 014°33'0 0.0
2018-Feb-12 02:20N 35°49' E 014°33'0 0.1
2018-Feb-12 01:02N 35°49' E 014°33'0 0.8
2018-Feb-12 00:56N 35°49' E 014°33'0 0.6
2018-Feb-12 00:27N 35°49' E 014°33'0 1.0
2018-Feb-12 00:00N 35°49' E 014°33'1 1.3
2018-Feb-11 23:29N 35°49' E 014°33'0 0.7
2018-Feb-11 23:00N 35°49' E 014°32'0 0.3
2018-Feb-11 22:30N 35°49' E 014°33'0 0.0
2018-Feb-11 21:55N 35°49' E 014°33'0 0.0
2018-Feb-11 21:28N 35°49' E 014°33'0 0.0
2018-Feb-11 20:59N 35°49' E 014°33'0 0.0
2018-Feb-11 20:30N 35°49' E 014°33'0 0.0
2018-Feb-11 20:00N 35°49' E 014°33'0 0.0
2018-Feb-11 19:30N 35°49' E 014°33'0 0.0
2018-Feb-11 18:56N 35°49' E 014°33'0 0.0
2018-Feb-11 18:28N 35°49' E 014°33'0 0.0
2018-Feb-11 18:00N 35°49' E 014°33'0 0.0
2018-Feb-11 17:30N 35°49' E 014°33'0 0.0
2018-Feb-11 16:59N 35°49' E 014°33'0 0.0
2018-Feb-11 16:30N 35°49' E 014°33'1 0.8
2018-Feb-11 15:51N 35°49' E 014°32'1 3.7
2018-Feb-11 15:29N 35°49' E 014°34'1 2.6
2018-Feb-11 14:59N 35°49' E 014°32'0 0.5
2018-Feb-11 14:27N 35°49' E 014°32'0 0.6
2018-Feb-11 13:59N 35°49' E 014°33'0 0.0
2018-Feb-11 13:04N 35°49' E 014°33'0 0.0
2018-Feb-11 12:49N 35°49' E 014°33'0 0.0
2018-Feb-11 12:22N 35°49' E 014°33'0 0.0
2018-Feb-11 11:58N 35°49' E 014°33'0 0.7
2018-Feb-11 11:17N 35°49' E 014°33'0 0.1
2018-Feb-11 09:56N 35°49' E 014°33'1 1.5
2018-Feb-11 09:30N 35°49' E 014°32'0 0.4
2018-Feb-11 09:00N 35°49' E 014°33'1 2.3
2018-Feb-11 08:29N 35°49' E 014°34'1 0.8
2018-Feb-11 07:10N 35°49' E 014°33'0 2.2
2018-Feb-11 06:59N 35°49' E 014°33'1 0.7
2018-Feb-11 06:11N 35°49' E 014°33'0 0.9
2018-Feb-11 05:49N 35°49' E 014°33'1 0.9
2018-Feb-11 05:15N 35°49' E 014°32'0 0.5
2018-Feb-11 04:55N 35°49' E 014°33'0 0.0
2018-Feb-11 04:19N 35°49' E 014°33'0 0.0
2018-Feb-11 03:57N 35°49' E 014°33'0 0.7
2018-Feb-11 03:15N 35°49' E 014°33'0 0.4
2018-Feb-11 02:54N 35°49' E 014°33'0 0.7
2018-Feb-11 02:23N 35°49' E 014°33'0 0.0
2018-Feb-11 01:58N 35°49' E 014°33'0 0.0
2018-Feb-11 01:30N 35°49' E 014°33'0 0.0
2018-Feb-11 00:57N 35°49' E 014°33'0 0.0
2018-Feb-11 00:28N 35°49' E 014°33'0 0.0
2018-Feb-10 23:56N 35°49' E 014°33'0 0.0
2018-Feb-10 23:30N 35°49' E 014°33'0 0.0
2018-Feb-10 22:47N 35°49' E 014°33'0 0.0
2018-Feb-10 22:23N 35°49' E 014°33'0 0.0
2018-Feb-10 21:42N 35°49' E 014°33'0 0.0
2018-Feb-10 21:26N 35°49' E 014°33'0 0.0
2018-Feb-10 20:53N 35°49' E 014°33'0 0.0
2018-Feb-10 20:29N 35°49' E 014°33'0 0.0
2018-Feb-10 19:33N 35°49' E 014°33'0 0.3
2018-Feb-10 19:29N 35°49' E 014°33'0 0.0
2018-Feb-10 18:45N 35°49' E 014°33'0 0.0
2018-Feb-10 18:27N 35°49' E 014°33'0 0.0
2018-Feb-10 16:34N 35°49' E 014°33'0 0.0
2018-Feb-10 16:22N 35°49' E 014°33'0 0.3
2018-Feb-10 16:00N 35°49' E 014°32'1 1.7
2018-Feb-10 15:27N 35°49' E 014°34'1 1.8
2018-Feb-10 15:00N 35°49' E 014°33'0 0.0
2018-Feb-10 14:01N 35°49' E 014°33'0 0.0
2018-Feb-10 14:00N 35°49' E 014°33'0 0.0
2018-Feb-10 12:26N 35°49' E 014°33'0 0.0
2018-Feb-10 04:51N 35°49' E 014°33'0 0.0
2018-Feb-10 04:28N 35°49' E 014°33'0 0.1
2018-Feb-10 02:37N 35°49' E 014°32'0 0.5
2018-Feb-10 01:53N 35°49' E 014°33'0 0.7
2018-Feb-10 01:22N 35°49' E 014°33'0 0.1
2018-Feb-10 00:58N 35°49' E 014°33'1 0.4
2018-Feb-09 23:28N 35°49' E 014°33'1 0.3
2018-Feb-09 21:42N 35°49' E 014°33'0 0.0
2018-Feb-09 07:00N 35°49' E 014°33'0 0.0
2018-Feb-08 12:00N 35°49' E 014°33'0 0.0
2018-Feb-08 00:57N 35°49' E 014°33'0 0.0
2018-Feb-08 00:23N 35°49' E 014°33'0 0.0
2018-Feb-07 23:59N 35°49' E 014°33'0 0.2
2018-Feb-07 23:29N 35°49' E 014°32'0 0.7
2018-Feb-07 22:52N 35°49' E 014°33'0 0.0
2018-Feb-07 08:40N 35°49' E 014°33'0 0.3
2018-Feb-07 08:19N 35°49' E 014°33'1 1.5
2018-Feb-07 07:59N 35°49' E 014°33'0 0.0
2018-Feb-07 07:18N 35°49' E 014°33'0 0.9
2018-Feb-07 06:49N 35°49' E 014°33'1 1.4
2018-Feb-07 06:26N 35°49' E 014°32'1 0.6
2018-Feb-07 05:26N 35°49' E 014°33'0 1.1
2018-Feb-07 04:59N 35°49' E 014°33'0 0.4
2018-Feb-07 03:51N 35°49' E 014°32'1 1.0
2018-Feb-07 03:19N 35°49' E 014°33'1 1.2
2018-Feb-07 02:52N 35°49' E 014°32'0 0.5
2018-Feb-07 02:26N 35°49' E 014°32'0 0.3
2018-Feb-07 01:15N 35°49' E 014°33'0 0.0
2018-Feb-07 01:00N 35°49' E 014°33'0 0.0
2018-Feb-07 00:19N 35°49' E 014°33'0 0.0
2018-Feb-06 23:58N 35°49' E 014°33'0 0.0
2018-Feb-06 23:27N 35°49' E 014°33'1 1.3
2018-Feb-06 23:00N 35°49' E 014°32'0 0.9
2018-Feb-06 22:30N 35°49' E 014°32'0 0.5
2018-Feb-06 21:58N 35°49' E 014°33'0 0.7
2018-Feb-06 21:30N 35°49' E 014°33'0 0.7
2018-Feb-06 20:58N 35°49' E 014°33'0 0.8
2018-Feb-06 20:30N 35°49' E 014°33'0 0.0
2018-Feb-06 19:19N 35°49' E 014°33'0 0.0
2018-Feb-06 18:59N 35°49' E 014°33'0 0.0
2018-Feb-06 18:04N 35°49' E 014°33'0 0.0
2018-Feb-06 17:54N 35°49' E 014°33'0 0.0
2018-Feb-06 17:30N 35°49' E 014°33'0 0.1
2018-Feb-06 16:41N 35°49' E 014°33'0 0.9
2018-Feb-06 16:16N 35°49' E 014°33'0 1.2
2018-Feb-06 16:00N 35°49' E 014°33'0 0.6
2018-Feb-06 15:25N 35°49' E 014°32'0 0.5
2018-Feb-06 14:59N 35°49' E 014°33'0 0.0
2018-Feb-06 14:16N 35°49' E 014°33'0 0.2
2018-Feb-06 13:05N 35°49' E 014°32'0 1.5
2018-Feb-06 12:53N 35°49' E 014°32'0 1.1
2018-Feb-06 12:29N 35°49' E 014°33'0 0.8
2018-Feb-06 11:56N 35°49' E 014°33'0 0.2
2018-Feb-06 11:13N 35°49' E 014°33'0 0.8
2018-Feb-06 10:57N 35°49' E 014°33'0 0.7
2018-Feb-06 10:17N 35°49' E 014°32'1 0.8
2018-Feb-06 09:08N 35°49' E 014°33'0 2.0
2018-Feb-06 08:56N 35°49' E 014°33'0 0.3
2018-Feb-06 07:15N 35°49' E 014°32'0 0.1
2018-Feb-06 06:59N 35°49' E 014°32'0 0.8
2018-Feb-06 06:30N 35°49' E 014°33'0 0.0
2018-Feb-06 06:00N 35°49' E 014°33'0 0.0
2018-Feb-06 05:21N 35°49' E 014°33'0 0.0
2018-Feb-06 04:51N 35°49' E 014°33'0 0.0
2018-Feb-06 04:14N 35°49' E 014°33'0 0.0
2018-Feb-06 03:42N 35°49' E 014°33'0 0.0
2018-Feb-06 03:30N 35°49' E 014°33'0 0.0
2018-Feb-06 02:59N 35°49' E 014°33'0 0.1
2018-Feb-05 23:29N 35°49' E 014°32'0 0.8
2018-Feb-05 22:54N 35°49' E 014°33'0 0.0
2018-Feb-05 22:26N 35°49' E 014°33'0 0.0
2018-Feb-05 21:59N 35°49' E 014°33'0 0.0
2018-Feb-05 21:24N 35°49' E 014°33'0 0.0
2018-Feb-05 20:57N 35°49' E 014°33'0 0.0
2018-Feb-05 20:17N 35°49' E 014°33'0 0.0
2018-Feb-05 19:51N 35°49' E 014°33'1 0.3
2018-Feb-05 18:04N 35°49' E 014°33'1 1.2
2018-Feb-05 17:38N 35°49' E 014°33'0 1.2
2018-Feb-05 17:21N 35°49' E 014°32'0 0.8
2018-Feb-05 16:59N 35°49' E 014°33'0 0.0
2018-Feb-05 16:29N 35°49' E 014°33'0 0.0
2018-Feb-05 16:00N 35°49' E 014°33'0 0.7
2018-Feb-05 15:24N 35°49' E 014°33'0 1.0
2018-Feb-05 14:58N 35°49' E 014°33'0 0.0
2018-Feb-05 14:27N 35°49' E 014°33'0 0.0
2018-Feb-05 14:00N 35°49' E 014°33'0 0.0
2018-Feb-05 13:30N 35°49' E 014°33'0 0.0
2018-Feb-05 12:59N 35°49' E 014°33'0 0.0
2018-Feb-05 12:30N 35°49' E 014°33'0 0.0
2018-Feb-05 11:59N 35°49' E 014°33'0 0.0
2018-Feb-05 11:29N 35°49' E 014°33'0 0.0
2018-Feb-05 10:57N 35°49' E 014°33'0 0.0
2018-Feb-05 10:29N 35°49' E 014°33'0 0.0
2018-Feb-05 10:00N 35°49' E 014°33'0 0.0
2018-Feb-05 09:28N 35°49' E 014°33'0 0.0
2018-Feb-05 09:00N 35°49' E 014°33'0 0.0
2018-Feb-05 08:24N 35°49' E 014°33'0 0.0
2018-Feb-05 07:59N 35°49' E 014°33'0 0.3
2018-Feb-05 07:28N 35°49' E 014°32'0 0.9
2018-Feb-05 06:58N 35°49' E 014°33'0 0.8
2018-Feb-05 06:27N 35°49' E 014°33'0 0.4
2018-Feb-05 05:30N 35°49' E 014°33'1 0.1
2018-Feb-04 22:32N 35°49' E 014°33'0 2.1
2018-Feb-04 22:26N 35°49' E 014°33'1 0.7
2018-Feb-04 21:36N 35°49' E 014°32'0 0.1
2018-Feb-04 21:30N 35°49' E 014°32'0 0.6
2018-Feb-04 21:00N 35°49' E 014°33'0 0.0
2018-Feb-04 19:57N 35°49' E 014°33'1 1.2
2018-Feb-04 19:30N 35°50' E 014°33'1 0.6
2018-Feb-04 18:39N 35°49' E 014°33'1 0.2
2018-Feb-04 15:20N 35°49' E 014°33'1 1.2
2018-Feb-04 14:41N 35°49' E 014°32'0 1.5
2018-Feb-04 14:29N 35°49' E 014°33'0 0.4
2018-Feb-04 13:37N 35°49' E 014°33'0 2.7
2018-Feb-04 13:29N 35°49' E 014°33'0 0.0
2018-Feb-04 13:00N 35°49' E 014°33'0 0.0
2018-Feb-04 12:30N 35°49' E 014°33'0 0.0
2018-Feb-04 12:00N 35°49' E 014°33'0 0.4
2018-Feb-04 11:28N 35°49' E 014°32'0 0.0
2018-Feb-04 09:59N 35°49' E 014°32'1 0.2
2018-Feb-04 07:06N 35°49' E 014°33'0 0.9
2018-Feb-04 06:58N 35°49' E 014°33'0 0.6
2018-Feb-04 06:13N 35°49' E 014°33'0 1.8
2018-Feb-04 06:00N 35°49' E 014°33'0 0.0
2018-Feb-04 05:29N 35°49' E 014°33'0 0.0
2018-Feb-04 04:59N 35°49' E 014°33'0 0.0
2018-Feb-04 04:18N 35°49' E 014°33'0 0.0
2018-Feb-04 03:57N 35°49' E 014°33'0 0.0
2018-Feb-04 02:55N 35°49' E 014°33'0 0.0
2018-Feb-04 02:23N 35°49' E 014°33'0 0.0
2018-Feb-04 01:55N 35°49' E 014°33'0 0.0
2018-Feb-04 01:29N 35°49' E 014°33'0 0.5
2018-Feb-04 00:57N 35°49' E 014°32'1 1.6
2018-Feb-04 00:29N 35°49' E 014°33'0 0.7
2018-Feb-03 23:48N 35°49' E 014°33'0 0.0
2018-Feb-03 23:28N 35°49' E 014°33'0 0.8
2018-Feb-03 22:59N 35°49' E 014°32'0 0.3
2018-Feb-03 22:12N 35°49' E 014°32'1 4.9
2018-Feb-03 21:58N 35°49' E 014°33'1 0.3
2018-Feb-03 20:04N 35°49' E 014°33'1 0.3
2018-Feb-03 17:55N 35°49' E 014°32'1 1.2
2018-Feb-03 17:26N 35°49' E 014°33'0 0.3
2018-Feb-03 15:59N 35°49' E 014°33'0 0.0
2018-Feb-03 13:50N 35°49' E 014°33'0 0.0
2018-Feb-03 13:21N 35°49' E 014°33'0 0.0
2018-Feb-03 12:48N 35°49' E 014°33'0 0.0
2018-Feb-03 12:12N 35°49' E 014°33'  

Dump ship's entire track history